createdAt,value
2023-02-11T00:02:11.331Z,3.02
2023-02-11T00:04:49.661Z,2.94
2023-02-11T00:07:20.172Z,2.83
2023-02-11T00:09:50.827Z,3.00
2023-02-11T00:12:21.368Z,2.83
2023-02-11T00:14:54.363Z,2.73
2023-02-11T00:17:25.333Z,2.75
2023-02-11T00:20:09.419Z,2.81
2023-02-11T00:22:47.314Z,2.82
2023-02-11T00:25:27.876Z,2.76
2023-02-11T00:28:05.512Z,2.87
2023-02-11T00:30:42.612Z,2.97
2023-02-11T00:33:15.857Z,2.64
2023-02-11T00:35:49.722Z,2.84
2023-02-11T00:38:30.379Z,2.83
2023-02-11T00:41:00.200Z,2.74
2023-02-11T00:43:29.359Z,2.79
2023-02-11T00:46:04.401Z,2.96
2023-02-11T00:48:38.138Z,2.86
2023-02-11T00:51:17.119Z,2.87
2023-02-11T00:53:48.013Z,2.87
2023-02-11T00:56:19.213Z,2.80
2023-02-11T00:58:48.810Z,2.77
2023-02-11T01:01:27.472Z,2.70
2023-02-11T01:04:02.829Z,2.70
2023-02-11T01:06:36.742Z,2.71
2023-02-11T01:09:12.023Z,2.69
2023-02-11T01:11:41.457Z,2.57
2023-02-11T01:14:13.623Z,2.54
2023-02-11T01:16:44.647Z,2.61
2023-02-11T01:22:00.911Z,2.66
2023-02-11T01:24:38.163Z,2.59
2023-02-11T01:27:11.340Z,2.67
2023-02-11T01:29:42.284Z,2.66
2023-02-11T01:32:26.597Z,2.58
2023-02-11T01:34:58.489Z,2.56
2023-02-11T01:40:18.231Z,2.68
2023-02-11T01:42:51.031Z,2.59
2023-02-11T01:45:53.833Z,2.63
2023-02-11T01:48:34.247Z,2.65
2023-02-11T01:51:10.652Z,2.70
2023-02-11T01:53:58.786Z,2.76
2023-02-11T01:56:47.645Z,2.65
2023-02-11T01:59:25.885Z,2.58
2023-02-11T02:02:05.312Z,2.48
2023-02-11T02:04:53.073Z,2.55
2023-02-11T02:07:28.607Z,2.61
2023-02-11T02:10:28.151Z,2.58
2023-02-11T02:13:10.167Z,2.60
2023-02-11T02:15:40.694Z,2.39
2023-02-11T02:18:34.731Z,2.33
2023-02-11T02:27:49.450Z,2.35
2023-02-11T02:33:56.054Z,2.13
2023-02-11T02:36:34.180Z,2.07
2023-02-11T02:39:10.075Z,2.18
2023-02-11T02:41:40.499Z,2.28
2023-02-11T02:44:22.254Z,2.23
2023-02-11T02:49:54.489Z,2.34
2023-02-11T05:23:29.148Z,3.00
2023-02-11T05:29:01.892Z,3.24
2023-02-11T06:49:49.599Z,3.37
2023-02-11T06:52:21.352Z,3.45
2023-02-11T06:54:53.396Z,3.42
2023-02-11T07:00:36.142Z,3.55
2023-02-11T07:03:14.620Z,3.63
2023-02-11T07:05:55.476Z,3.63
2023-02-11T07:08:32.892Z,3.83
2023-02-11T07:11:13.836Z,3.80
2023-02-11T07:13:52.513Z,3.89
2023-02-11T07:16:21.805Z,3.79
2023-02-11T07:18:53.000Z,3.91
2023-02-11T07:31:09.524Z,4.20
2023-02-11T07:33:38.519Z,4.24
2023-02-11T07:36:15.983Z,4.38
2023-02-11T07:38:48.339Z,4.48
2023-02-11T07:41:27.287Z,4.47
2023-02-11T07:43:56.428Z,4.68
2023-02-11T07:46:30.317Z,4.68
2023-02-11T07:49:00.045Z,4.76
2023-02-11T07:51:31.200Z,4.78
2023-02-11T07:54:05.563Z,4.89
2023-02-11T07:56:42.637Z,4.74
2023-02-11T07:59:12.809Z,4.71
2023-02-11T08:01:51.458Z,4.90
2023-02-11T08:04:28.032Z,4.92
2023-02-11T08:07:01.835Z,4.86
2023-02-11T08:09:32.816Z,4.96
2023-02-11T08:12:04.089Z,5.05
2023-02-11T08:14:35.271Z,4.98
2023-02-11T08:17:09.571Z,4.96
2023-02-11T08:19:39.458Z,5.10
2023-02-11T08:22:11.067Z,5.01
2023-02-11T08:24:40.055Z,5.12
2023-02-11T08:27:11.732Z,5.07
2023-02-11T08:29:42.166Z,5.06
2023-02-11T08:32:14.605Z,4.93
2023-02-11T08:34:54.175Z,5.15
2023-02-11T08:37:25.430Z,5.17
2023-02-11T08:39:54.426Z,5.20
2023-02-11T08:42:28.669Z,5.20
2023-02-11T08:45:00.244Z,5.27
2023-02-11T08:47:31.510Z,5.24
2023-02-11T08:50:03.076Z,5.22
2023-02-11T08:52:31.385Z,5.25
2023-02-11T08:55:06.063Z,5.38
2023-02-11T08:57:38.748Z,5.38
2023-02-11T09:00:13.741Z,5.30
2023-02-11T09:02:48.269Z,5.36
2023-02-11T09:05:24.819Z,5.37
2023-02-11T09:07:55.790Z,5.35
2023-02-11T09:10:24.667Z,5.61
2023-02-11T09:12:59.182Z,5.67
2023-02-11T09:15:28.645Z,5.62
2023-02-11T09:18:01.507Z,5.70
2023-02-11T09:20:32.656Z,5.66
2023-02-11T09:23:08.753Z,5.66
2023-02-11T09:25:42.614Z,5.94
2023-02-11T09:28:20.079Z,5.88
2023-02-11T09:30:56.088Z,5.92
2023-02-11T09:33:27.521Z,6.12
2023-02-11T09:35:56.909Z,5.99
2023-02-11T09:38:27.711Z,5.93
2023-02-11T09:40:56.835Z,5.90
2023-02-11T09:43:28.814Z,5.83
2023-02-11T09:46:05.104Z,5.92
2023-02-11T09:48:52.892Z,5.89
2023-02-11T09:51:28.393Z,5.93
2023-02-11T09:54:05.535Z,5.79
2023-02-11T09:56:39.502Z,5.77
2023-02-11T09:59:14.610Z,5.83
2023-02-11T10:01:49.447Z,5.91
2023-02-11T10:04:35.786Z,5.99
2023-02-11T10:07:12.042Z,5.94
2023-02-11T10:10:03.566Z,6.13
2023-02-11T10:12:52.942Z,6.21
2023-02-11T10:15:29.661Z,6.20
2023-02-11T10:18:12.192Z,6.33
2023-02-11T10:20:56.469Z,6.42
2023-02-11T10:23:28.207Z,6.44
2023-02-11T10:26:08.196Z,6.48
2023-02-11T10:28:49.319Z,6.58
2023-02-11T10:31:23.085Z,6.60
2023-02-11T10:33:58.031Z,6.78
2023-02-11T10:36:37.217Z,6.69
2023-02-11T10:39:16.191Z,6.79
2023-02-11T10:41:49.056Z,6.74
2023-02-11T10:44:28.299Z,6.72
2023-02-11T10:47:02.828Z,6.74
2023-02-11T10:49:42.648Z,6.76
2023-02-11T10:52:24.153Z,6.73
2023-02-11T10:55:02.157Z,6.90
2023-02-11T10:57:42.257Z,6.80
2023-02-11T11:00:28.469Z,6.80
2023-02-11T11:03:01.056Z,6.78
2023-02-11T11:05:33.070Z,6.78
2023-02-11T11:08:07.717Z,6.81
2023-02-11T11:10:45.838Z,6.94
2023-02-11T11:13:37.598Z,6.76
2023-02-11T11:16:29.602Z,6.84
2023-02-11T11:19:34.159Z,7.04
2023-02-11T11:22:07.380Z,6.98
2023-02-11T11:24:55.286Z,7.09
2023-02-11T11:27:26.603Z,6.98
2023-02-11T11:30:06.089Z,7.24
2023-02-11T11:32:49.305Z,7.38
2023-02-11T11:35:36.863Z,7.34
2023-02-11T11:38:06.757Z,7.40
2023-02-11T11:41:23.306Z,7.38
2023-02-11T11:44:10.074Z,7.41
2023-02-11T11:46:47.883Z,7.42
2023-02-11T11:49:41.567Z,7.27
2023-02-11T11:52:35.128Z,7.44
2023-02-11T11:55:08.164Z,7.40
2023-02-11T11:57:53.480Z,7.42
2023-02-11T12:00:39.843Z,7.46
2023-02-11T12:03:49.412Z,7.56
2023-02-11T12:06:53.413Z,7.67
2023-02-11T12:09:28.023Z,7.79
2023-02-11T12:12:34.809Z,7.63
2023-02-11T12:15:33.696Z,7.57
2023-02-11T12:18:51.512Z,7.49
2023-02-11T12:21:39.985Z,7.53
2023-02-11T12:24:32.213Z,7.33
2023-02-11T12:27:15.809Z,7.31
2023-02-11T12:30:02.530Z,7.36
2023-02-11T12:32:43.861Z,7.35
2023-02-11T12:35:32.905Z,7.25
2023-02-11T12:38:37.370Z,7.19
2023-02-11T12:41:48.764Z,7.23
2023-02-11T12:44:27.599Z,7.27
2023-02-11T12:46:59.387Z,7.32
2023-02-11T12:50:06.654Z,7.27
2023-02-11T12:53:04.087Z,7.20
2023-02-11T12:55:38.841Z,7.15
2023-02-11T12:58:14.629Z,7.20
2023-02-11T13:00:54.313Z,7.29
2023-02-11T13:03:30.280Z,7.34
2023-02-11T13:06:06.579Z,7.31
2023-02-11T13:08:39.915Z,7.29
2023-02-11T13:11:16.116Z,7.27
2023-02-11T13:13:59.276Z,7.28
2023-02-11T13:16:41.394Z,7.26
2023-02-11T13:19:25.902Z,7.18
2023-02-11T13:22:21.994Z,7.32
2023-02-11T13:25:00.200Z,7.25
2023-02-11T13:27:35.219Z,7.19
2023-02-11T13:30:28.226Z,7.16
2023-02-11T13:33:32.300Z,7.11
2023-02-11T13:36:25.539Z,7.17
2023-02-11T13:39:07.074Z,7.20
2023-02-11T13:41:40.816Z,7.15
2023-02-11T13:44:30.768Z,7.14
2023-02-11T13:47:07.352Z,7.16
2023-02-11T13:49:42.063Z,7.35
2023-02-11T13:52:29.389Z,7.29
2023-02-11T13:55:08.529Z,7.21
2023-02-11T13:57:44.012Z,7.06
2023-02-11T14:00:50.075Z,7.20
2023-02-11T14:03:51.123Z,7.25
2023-02-11T14:06:47.758Z,7.22
2023-02-11T14:09:44.499Z,7.13
2023-02-11T14:12:47.333Z,7.15
2023-02-11T14:15:25.529Z,7.00
2023-02-11T14:17:59.705Z,6.94
2023-02-11T14:20:56.657Z,6.92
2023-02-11T14:23:33.117Z,6.95
2023-02-11T14:26:24.505Z,6.82
2023-02-11T14:29:03.365Z,6.84
2023-02-11T14:31:39.895Z,6.84
2023-02-11T14:34:50.270Z,6.80
2023-02-11T14:37:45.614Z,6.86
2023-02-11T14:40:28.589Z,6.83
2023-02-11T14:43:15.912Z,6.85
2023-02-11T14:46:08.847Z,6.78
2023-02-11T14:48:43.557Z,6.81
2023-02-11T14:51:29.177Z,6.81
2023-02-11T14:54:15.586Z,6.80
2023-02-11T14:57:04.542Z,6.82
2023-02-11T14:59:53.855Z,6.85
2023-02-11T15:02:29.593Z,6.80
2023-02-11T15:05:29.311Z,6.74
2023-02-11T15:08:12.554Z,6.73
2023-02-11T15:10:46.348Z,6.78
2023-02-11T15:13:21.541Z,6.83
2023-02-11T15:16:24.956Z,6.79
2023-02-11T15:19:20.618Z,6.75
2023-02-11T15:21:53.526Z,6.82
2023-02-11T15:24:33.403Z,6.78
2023-02-11T15:27:16.844Z,6.73
2023-02-11T15:29:54.911Z,6.76
2023-02-11T15:32:33.675Z,6.74
2023-02-11T15:35:14.880Z,6.65
2023-02-11T15:37:56.122Z,6.74
2023-02-11T15:40:34.925Z,6.62
2023-02-11T15:43:07.528Z,6.64
2023-02-11T15:45:49.268Z,6.51
2023-02-11T15:48:24.613Z,6.63
2023-02-11T15:51:01.326Z,6.40
2023-02-11T15:53:37.978Z,6.48
2023-02-11T15:56:27.662Z,6.51
2023-02-11T15:59:01.424Z,6.45
2023-02-11T16:01:37.463Z,6.55
2023-02-11T16:04:21.775Z,6.52
2023-02-11T16:07:00.225Z,6.47
2023-02-11T16:09:43.179Z,6.45
2023-02-11T16:12:29.687Z,6.33
2023-02-11T16:15:34.023Z,6.39
2023-02-11T16:18:21.041Z,6.38
2023-02-11T16:20:51.169Z,6.35
2023-02-11T16:23:26.643Z,6.50
2023-02-11T16:26:11.195Z,6.48
2023-02-11T16:28:53.064Z,6.47
2023-02-11T16:31:33.144Z,6.42
2023-02-11T16:34:06.269Z,6.41
2023-02-11T16:36:54.734Z,6.29
2023-02-11T16:39:49.583Z,6.43
2023-02-11T16:42:36.146Z,6.58
2023-02-11T16:45:16.506Z,6.47
2023-02-11T16:47:47.253Z,6.37
2023-02-11T16:50:25.075Z,6.45
2023-02-11T16:52:55.598Z,6.42
2023-02-11T16:55:46.869Z,6.38
2023-02-11T16:58:25.889Z,6.41
2023-02-11T17:01:14.198Z,6.50
2023-02-11T17:03:46.174Z,6.57
2023-02-11T17:06:24.174Z,6.47
2023-02-11T17:08:54.287Z,6.47
2023-02-11T17:11:30.184Z,6.56
2023-02-11T17:14:02.753Z,6.51
2023-02-11T17:16:34.688Z,6.60
2023-02-11T17:19:18.992Z,6.52
2023-02-11T17:21:56.428Z,6.38
2023-02-11T17:24:28.694Z,6.38
2023-02-11T17:27:13.756Z,6.38
2023-02-11T17:29:53.148Z,6.29
2023-02-11T17:32:22.903Z,6.44
2023-02-11T17:34:57.092Z,6.44
2023-02-11T17:37:28.156Z,6.44
2023-02-11T17:40:06.704Z,6.50
2023-02-11T17:42:51.096Z,6.44
2023-02-11T17:45:22.489Z,6.47
2023-02-11T17:47:53.704Z,6.42
2023-02-11T17:50:29.144Z,6.56
2023-02-11T17:53:00.080Z,6.62
2023-02-11T17:55:38.562Z,6.51
2023-02-11T17:58:14.084Z,6.54
2023-02-11T18:00:45.248Z,6.49
2023-02-11T18:03:18.436Z,6.46
2023-02-11T18:05:47.976Z,6.45
2023-02-11T18:08:22.662Z,6.52
2023-02-11T18:11:04.409Z,6.43
2023-02-11T18:14:00.833Z,6.47
2023-02-11T18:16:38.201Z,6.49
2023-02-11T18:19:15.721Z,6.54
2023-02-11T18:22:00.899Z,6.29
2023-02-11T18:24:37.453Z,6.41
2023-02-11T18:27:15.826Z,6.37
2023-02-11T18:29:51.071Z,6.44
2023-02-11T18:32:29.621Z,6.40
2023-02-11T18:35:02.141Z,6.48
2023-02-11T18:37:33.500Z,6.35
2023-02-11T18:40:09.085Z,6.38
2023-02-11T18:42:45.275Z,6.33
2023-02-11T18:45:20.315Z,6.42
2023-02-11T18:48:08.861Z,6.52
2023-02-11T18:50:41.098Z,6.53
2023-02-11T18:53:21.225Z,6.46
2023-02-11T18:56:02.065Z,6.41
2023-02-11T18:58:40.747Z,6.50
2023-02-11T19:01:31.121Z,6.49
2023-02-11T19:04:10.936Z,6.39
2023-02-11T19:06:43.564Z,6.38
2023-02-11T19:09:20.310Z,6.51
2023-02-11T19:11:58.662Z,6.50
2023-02-11T19:14:32.866Z,6.50
2023-02-11T19:17:19.352Z,6.52
2023-02-11T19:19:51.494Z,6.61
2023-02-11T19:22:23.304Z,6.57
2023-02-11T19:24:55.450Z,6.53
2023-02-11T19:27:25.964Z,6.57
2023-02-11T19:30:06.782Z,6.71
2023-02-11T19:32:42.863Z,6.53
2023-02-11T19:35:18.616Z,6.52
2023-02-11T19:38:00.599Z,6.57
2023-02-11T19:40:32.853Z,6.58
2023-02-11T19:43:11.124Z,6.77
2023-02-11T19:45:45.057Z,6.68
2023-02-11T19:48:25.505Z,6.62
2023-02-11T19:51:06.933Z,6.65
2023-02-11T19:53:38.074Z,6.65
2023-02-11T19:56:18.138Z,6.68
2023-02-11T19:58:54.705Z,6.64
2023-02-11T20:01:39.383Z,6.69
2023-02-11T20:04:19.981Z,6.75
2023-02-11T20:06:55.944Z,6.60
2023-02-11T20:09:35.824Z,6.55
2023-02-11T20:12:09.335Z,6.77
2023-02-11T20:14:43.189Z,6.65
2023-02-11T20:17:21.942Z,6.63
2023-02-11T20:20:35.802Z,6.60
2023-02-11T20:23:08.979Z,6.67
2023-02-11T20:25:52.776Z,6.49
2023-02-11T20:28:24.675Z,6.60
2023-02-11T20:31:05.442Z,6.60
2023-02-11T20:34:01.974Z,6.67
2023-02-11T20:36:42.396Z,6.56
2023-02-11T20:39:18.051Z,6.64
2023-02-11T20:41:51.348Z,6.62
2023-02-11T20:44:34.168Z,6.48
2023-02-11T20:47:10.417Z,6.58
2023-02-11T20:49:50.825Z,6.62
2023-02-11T20:52:32.679Z,6.51
2023-02-11T20:55:04.296Z,6.49
2023-02-11T20:57:40.462Z,6.53
2023-02-11T21:00:29.060Z,6.42
2023-02-11T21:03:04.133Z,6.53
2023-02-11T21:05:52.192Z,6.41
2023-02-11T21:08:51.452Z,6.46
2023-02-11T21:11:25.685Z,6.36
2023-02-11T21:14:03.357Z,6.31
2023-02-11T21:16:43.640Z,6.34
2023-02-11T21:19:23.033Z,6.36
2023-02-11T21:22:01.833Z,6.48
2023-02-11T21:24:38.335Z,6.52
2023-02-11T21:27:15.628Z,6.43
2023-02-11T21:29:53.744Z,6.41
2023-02-11T21:32:24.338Z,6.34
2023-02-11T21:37:45.566Z,6.27
2023-02-11T21:40:34.866Z,6.31
2023-02-11T21:43:08.327Z,6.41
2023-02-11T21:45:48.971Z,6.39
2023-02-11T21:48:28.589Z,6.44
2023-02-11T21:50:58.311Z,6.42
2023-02-11T21:53:35.755Z,6.38
2023-02-11T21:56:18.856Z,6.36
2023-02-11T21:58:59.274Z,6.41
2023-02-11T22:01:31.647Z,6.35
2023-02-11T22:04:09.441Z,6.44
2023-02-11T22:06:39.166Z,6.48
2023-02-11T22:09:24.084Z,6.54
2023-02-11T22:11:56.870Z,6.54
2023-02-11T22:14:30.116Z,6.48
2023-02-11T22:17:04.608Z,6.54
2023-02-11T22:19:42.995Z,6.52
2023-02-11T22:22:20.804Z,6.49
2023-02-11T22:25:04.827Z,6.60
2023-02-11T22:27:39.162Z,6.67
2023-02-11T22:30:12.152Z,6.69
2023-02-11T22:32:50.921Z,6.55
2023-02-11T22:35:23.420Z,6.52
2023-02-11T22:37:52.832Z,6.52
2023-02-11T22:40:23.827Z,6.35
2023-02-11T22:43:00.683Z,6.41
2023-02-11T22:45:31.518Z,6.40
2023-02-11T22:48:01.001Z,6.40
2023-02-11T22:50:32.019Z,6.44
2023-02-11T22:53:01.751Z,6.44
2023-02-11T22:55:30.657Z,6.46
2023-02-11T22:58:06.924Z,6.48
2023-02-11T23:00:41.566Z,6.36
2023-02-11T23:03:16.830Z,6.45
2023-02-11T23:05:48.121Z,6.52
2023-02-11T23:08:22.026Z,6.63
2023-02-11T23:10:52.653Z,6.36
2023-02-11T23:13:23.391Z,6.43
2023-02-11T23:15:55.167Z,6.25
2023-02-11T23:18:29.480Z,6.43
2023-02-11T23:21:06.530Z,6.60
2023-02-11T23:23:38.868Z,6.47
2023-02-11T23:26:14.078Z,6.38
2023-02-11T23:29:04.513Z,6.50
2023-02-11T23:31:40.017Z,6.45
2023-02-11T23:34:16.844Z,6.32
2023-02-11T23:36:48.870Z,6.43
2023-02-11T23:39:22.669Z,6.44
2023-02-11T23:41:58.973Z,6.41
2023-02-11T23:44:32.122Z,6.38
2023-02-11T23:47:03.733Z,6.29
2023-02-11T23:49:32.415Z,6.50
2023-02-11T23:52:01.915Z,6.52
2023-02-11T23:54:30.375Z,6.45
2023-02-11T23:57:05.846Z,6.43
2023-02-11T23:59:38.289Z,6.48
